createdAt,value
2023-04-02T00:01:53.551Z,0.90
2023-04-02T00:07:31.766Z,0.90
2023-04-02T00:12:33.253Z,0.60
2023-04-02T00:17:34.704Z,0.65
2023-04-02T00:22:44.148Z,0.65
2023-04-02T00:27:46.005Z,0.80
2023-04-02T00:32:48.039Z,0.85
2023-04-02T00:37:50.262Z,0.35
2023-04-02T00:42:54.601Z,0.70
2023-04-02T00:47:58.812Z,0.57
2023-04-02T00:53:09.914Z,0.93
2023-04-02T00:58:25.447Z,1.00
2023-04-02T01:03:36.515Z,1.13
2023-04-02T01:09:09.567Z,1.17
2023-04-02T01:14:29.365Z,1.25
2023-04-02T01:19:52.851Z,1.10
2023-04-02T01:25:00.896Z,1.10
2023-04-02T01:30:05.173Z,1.52
2023-04-02T01:35:08.321Z,1.40
2023-04-02T01:40:21.678Z,1.67
2023-04-02T01:45:25.223Z,2.08
2023-04-02T01:50:37.275Z,2.13
2023-04-02T01:55:47.032Z,2.42
2023-04-02T02:00:57.021Z,2.40
2023-04-02T02:05:59.906Z,2.63
2023-04-02T02:11:02.603Z,2.00
2023-04-02T02:16:05.083Z,2.15
2023-04-02T02:21:10.329Z,2.42
2023-04-02T02:26:13.761Z,2.50
2023-04-02T02:31:22.796Z,2.40
2023-04-02T02:36:33.534Z,2.60
2023-04-02T02:41:45.594Z,2.72
2023-04-02T02:46:55.248Z,2.83
2023-04-02T02:52:08.830Z,2.47
2023-04-02T02:57:17.198Z,2.65
2023-04-02T03:02:19.179Z,2.80
2023-04-02T03:07:26.427Z,3.13
2023-04-02T03:12:40.216Z,2.60
2023-04-02T03:17:48.986Z,3.55
2023-04-02T03:23:01.214Z,2.45
2023-04-02T03:28:07.956Z,2.70
2023-04-02T03:33:15.355Z,2.90
2023-04-02T03:38:20.359Z,2.70
2023-04-02T03:43:31.385Z,2.53
2023-04-02T03:48:46.567Z,2.63
2023-04-02T03:53:49.540Z,2.90
2023-04-02T03:59:01.722Z,2.78
2023-04-02T04:04:10.391Z,2.38
2023-04-02T04:09:22.684Z,2.80
2023-04-02T04:14:34.750Z,2.88
2023-04-02T04:19:48.376Z,2.42
2023-04-02T04:24:50.089Z,2.95
2023-04-02T04:30:18.367Z,3.10
2023-04-02T04:35:28.905Z,2.85
2023-04-02T04:40:37.471Z,2.72
2023-04-02T04:45:45.987Z,2.83
2023-04-02T04:50:50.478Z,2.58
2023-04-02T05:01:27.545Z,3.28
2023-04-02T05:06:40.574Z,3.25
2023-04-02T05:11:51.244Z,3.67
2023-04-02T05:17:09.162Z,3.70
2023-04-02T05:22:32.351Z,3.40
2023-04-02T05:27:42.418Z,3.97
2023-04-02T05:32:50.829Z,3.65
2023-04-02T05:37:53.311Z,3.45
2023-04-02T05:42:55.906Z,3.95
2023-04-02T05:48:02.597Z,3.83
2023-04-02T05:53:14.397Z,3.50
2023-04-02T05:58:35.326Z,3.28
2023-04-02T06:03:56.366Z,3.50
2023-04-02T06:09:03.800Z,4.20
2023-04-02T06:14:05.423Z,4.68
2023-04-02T06:19:15.640Z,3.65
2023-04-02T06:24:22.540Z,1.20
2023-04-02T06:29:38.457Z,0.20
2023-04-02T06:34:42.452Z,0.20
2023-04-02T06:39:44.055Z,0.10
2023-04-02T06:44:46.152Z,0.10
2023-04-02T06:50:03.940Z,0.10
2023-04-02T06:55:37.076Z,0.30
2023-04-02T07:00:43.409Z,0.25
2023-04-02T07:05:45.815Z,0.22
2023-04-02T07:10:47.817Z,0.20
2023-04-02T07:15:52.507Z,0.20
2023-04-02T07:20:56.190Z,0.20
2023-04-02T07:25:59.662Z,0.35
2023-04-02T07:31:02.186Z,0.25
2023-04-02T07:36:03.772Z,0.20
2023-04-02T07:41:07.049Z,0.30
2023-04-02T07:46:10.852Z,0.10
2023-04-02T07:51:21.698Z,0.33
2023-04-02T07:56:24.907Z,0.45
2023-04-02T08:01:27.668Z,0.10
2023-04-02T08:06:29.712Z,0.10
2023-04-02T08:11:31.979Z,0.15
2023-04-02T08:16:49.617Z,0.17
2023-04-02T08:21:51.997Z,0.38
2023-04-02T08:26:54.158Z,0.20
2023-04-02T08:31:56.130Z,0.30
2023-04-02T08:36:58.997Z,0.93
2023-04-02T08:42:21.344Z,0.20
2023-04-02T08:47:26.317Z,0.30
2023-04-02T08:52:32.505Z,0.52
2023-04-02T08:57:49.116Z,0.40
2023-04-02T09:03:00.587Z,0.20
2023-04-02T09:08:06.107Z,0.40
2023-04-02T09:13:17.263Z,0.55
2023-04-02T09:18:20.057Z,0.52
2023-04-02T09:23:24.363Z,0.35
2023-04-02T09:28:26.348Z,0.40
2023-04-02T09:33:50.399Z,0.30
2023-04-02T09:39:11.619Z,0.40
2023-04-02T09:44:17.887Z,0.52
2023-04-02T09:49:22.960Z,0.52
2023-04-02T09:54:27.100Z,0.70
2023-04-02T09:59:29.328Z,0.80
2023-04-02T10:04:48.433Z,0.60
2023-04-02T10:10:01.246Z,0.63
2023-04-02T10:15:04.494Z,0.82
2023-04-02T10:20:17.210Z,0.82
2023-04-02T10:25:24.776Z,0.65
2023-04-02T10:30:45.228Z,0.60
2023-04-02T10:36:05.626Z,0.60
2023-04-02T10:41:29.110Z,0.50
2023-04-02T10:46:43.986Z,0.47
2023-04-02T10:52:10.502Z,0.90
2023-04-02T10:57:16.953Z,0.77
2023-04-02T11:02:32.286Z,0.50
2023-04-02T11:07:45.810Z,0.40
2023-04-02T11:12:55.694Z,0.60
2023-04-02T11:17:57.346Z,0.60
2023-04-02T11:23:30.213Z,0.80
2023-04-02T11:28:32.773Z,0.60
2023-04-02T11:33:44.783Z,1.10
2023-04-02T11:38:52.377Z,0.90
2023-04-02T11:44:00.478Z,1.30
2023-04-02T11:49:37.857Z,1.23
2023-04-02T11:54:40.770Z,1.00
2023-04-02T12:00:18.610Z,1.50
2023-04-02T12:05:37.098Z,1.00
2023-04-02T12:10:54.281Z,0.95
2023-04-02T12:15:58.283Z,1.10
2023-04-02T12:20:59.879Z,1.00
2023-04-02T12:26:03.612Z,1.10
2023-04-02T12:31:08.084Z,1.17
2023-04-02T12:41:24.987Z,1.27
2023-04-02T12:46:28.033Z,1.60
2023-04-02T12:51:29.675Z,1.20
2023-04-02T12:56:31.256Z,1.50
2023-04-02T13:01:33.994Z,1.60
2023-04-02T13:06:36.529Z,1.38
2023-04-02T13:11:40.545Z,1.70
2023-04-02T13:16:44.733Z,1.70
2023-04-02T13:21:46.312Z,2.33
2023-04-02T13:26:49.790Z,1.90
2023-04-02T13:31:53.534Z,2.40
2023-04-02T13:36:55.184Z,1.70
2023-04-02T13:42:02.350Z,2.53
2023-04-02T13:47:04.334Z,2.10
2023-04-02T13:52:13.862Z,2.40
2023-04-02T13:57:16.766Z,2.80
2023-04-02T14:02:24.271Z,6.13
2023-04-02T14:07:50.848Z,3.55
2023-04-02T14:13:23.101Z,3.20
2023-04-02T14:18:43.342Z,3.58
2023-04-02T14:23:54.847Z,3.70
2023-04-02T14:29:11.487Z,3.67
2023-04-02T14:34:40.924Z,4.05
2023-04-02T14:39:47.456Z,2.78
2023-04-02T14:45:10.653Z,2.92
2023-04-02T14:50:33.796Z,2.72
2023-04-02T14:55:49.622Z,2.53
2023-04-02T15:01:03.725Z,3.38
2023-04-02T15:06:10.424Z,2.97
2023-04-02T15:11:17.591Z,3.60
2023-04-02T15:16:25.799Z,3.72
2023-04-02T15:21:57.151Z,3.25
2023-04-02T15:27:33.125Z,3.90
2023-04-02T15:32:34.785Z,3.85
2023-04-02T15:37:42.025Z,4.03
2023-04-02T15:42:53.724Z,3.92
2023-04-02T15:48:15.252Z,3.50
2023-04-02T15:53:43.734Z,3.25
2023-04-02T15:59:08.495Z,3.13
2023-04-02T16:04:52.109Z,3.95
2023-04-02T16:10:10.863Z,3.25
2023-04-02T16:15:30.587Z,3.58
2023-04-02T16:20:37.086Z,3.88
2023-04-02T16:26:01.831Z,3.20
2023-04-02T16:31:37.544Z,3.10
2023-04-02T16:37:00.863Z,4.43
2023-04-02T16:42:16.993Z,4.35
2023-04-02T16:47:18.428Z,3.60
2023-04-02T16:52:33.071Z,3.03
2023-04-02T16:57:47.819Z,3.33
2023-04-02T17:03:06.385Z,3.88
2023-04-02T17:08:21.344Z,3.30
2023-04-02T17:13:42.164Z,4.18
2023-04-02T17:18:46.100Z,3.40
2023-04-02T17:24:14.570Z,3.07
2023-04-02T17:29:29.941Z,3.15
2023-04-02T17:34:31.945Z,3.42
2023-04-02T17:39:40.589Z,2.47
2023-04-02T17:44:52.710Z,2.67
2023-04-02T17:50:12.133Z,2.80
2023-04-02T17:55:56.050Z,3.38
2023-04-02T18:01:06.028Z,3.30
2023-04-02T18:06:19.962Z,3.70
2023-04-02T18:11:37.850Z,3.28
2023-04-02T18:16:49.767Z,3.65
2023-04-02T18:21:57.948Z,3.22
2023-04-02T18:27:02.341Z,2.63
2023-04-02T18:32:22.421Z,3.00
2023-04-02T18:37:31.348Z,2.65
2023-04-02T18:42:47.245Z,2.17
2023-04-02T18:48:19.798Z,2.55
2023-04-02T18:53:26.823Z,2.75
2023-04-02T18:58:46.237Z,2.42
2023-04-02T19:04:02.217Z,2.22
2023-04-02T19:09:27.269Z,2.20
2023-04-02T19:14:29.939Z,2.10
2023-04-02T19:19:41.566Z,2.45
2023-04-02T19:25:04.250Z,2.30
2023-04-02T19:30:51.667Z,2.35
2023-04-02T19:36:06.714Z,1.88
2023-04-02T19:46:10.107Z,1.60
2023-04-02T19:51:11.775Z,1.30
2023-04-02T19:56:13.287Z,1.45
2023-04-02T20:01:15.346Z,1.88
2023-04-02T20:06:17.079Z,1.65
2023-04-02T20:11:18.553Z,1.58
2023-04-02T20:16:21.587Z,1.45
2023-04-02T20:21:23.223Z,1.50
2023-04-02T20:26:24.763Z,1.60
2023-04-02T20:31:26.599Z,1.52
2023-04-02T20:36:28.287Z,2.03
2023-04-02T20:41:30.384Z,1.80
2023-04-02T20:46:31.831Z,1.98
2023-04-02T20:51:34.559Z,1.42
2023-04-02T20:56:36.037Z,1.75
2023-04-02T21:01:40.101Z,1.67
2023-04-02T21:06:42.040Z,1.30
2023-04-02T21:11:44.237Z,1.13
2023-04-02T21:16:46.107Z,1.35
2023-04-02T21:21:47.638Z,1.30
2023-04-02T21:26:50.494Z,1.50
2023-04-02T21:31:52.542Z,1.30
2023-04-02T21:36:54.307Z,1.30
2023-04-02T21:41:55.956Z,1.50
2023-04-02T21:46:57.541Z,1.88
2023-04-02T21:51:59.456Z,1.73
2023-04-02T21:57:00.970Z,1.40
2023-04-02T22:02:03.323Z,1.15
2023-04-02T22:07:04.743Z,1.50
2023-04-02T22:12:08.027Z,1.50
2023-04-02T22:17:09.789Z,1.50
2023-04-02T22:22:11.292Z,1.60
2023-04-02T22:27:12.802Z,1.98
2023-04-02T22:32:14.177Z,1.45
2023-04-02T22:37:15.606Z,1.92
2023-04-02T22:42:17.570Z,1.80
2023-04-02T22:47:19.646Z,1.90
2023-04-02T22:52:21.040Z,1.70
2023-04-02T22:57:24.766Z,1.83
2023-04-02T23:02:27.148Z,1.50
2023-04-02T23:07:28.744Z,1.38
2023-04-02T23:12:30.956Z,1.77
2023-04-02T23:17:32.624Z,1.50
2023-04-02T23:22:34.645Z,1.33
2023-04-02T23:27:36.686Z,1.50
2023-04-02T23:32:38.124Z,1.75
2023-04-02T23:37:39.603Z,1.38
2023-04-02T23:42:41.062Z,1.60
2023-04-02T23:47:43.244Z,2.05
2023-04-02T23:52:44.778Z,1.13
2023-04-02T23:57:46.228Z,1.50
